Time;durP1;ratioP1;P1;durP2;ratioP2;P2;SDS_P1;SDS_P2;PMS_P1;PMS_P2;Temp;Humidity;BMP_temperature;BMP_pressure;BME280_temperature;BME280_humidity;BME280_pressure;Samples;Min_cycle;Max_cycle;Signal;HPM_P1;HPM_P2
2022/01/07 00:00:16;;;;;;;23.88;12.82;;;;;;;8.78;78.59;99947.78;5079689;28;20036;-69
2022/01/07 00:02:47;;;;;;;21.70;13.68;;;;;;;8.79;77.58;99945.81;5113907;28;20036;-69
2022/01/07 00:05:14;;;;;;;33.88;14.23;;;;;;;8.75;78.66;99942.97;5096291;28;20035;-69
2022/01/07 00:07:40;;;;;;;27.83;13.63;;;;;;;8.68;78.23;99942.75;5096235;28;20030;-68
2022/01/07 00:10:08;;;;;;;23.38;14.43;;;;;;;8.62;78.33;99944.19;5097497;28;20024;-68
2022/01/07 00:12:34;;;;;;;21.63;11.35;;;;;;;8.55;78.15;99946.78;5078978;28;20059;-68
2022/01/07 00:14:59;;;;;;;24.45;10.27;;;;;;;8.53;78.14;99957.41;5096336;28;20028;-67
2022/01/07 00:17:25;;;;;;;29.45;14.30;;;;;;;8.32;78.26;99936.22;5096277;28;20032;-67
2022/01/07 00:19:50;;;;;;;27.17;14.90;;;;;;;8.44;78.28;99960.34;5097782;28;20032;-66
2022/01/07 00:22:16;;;;;;;21.15;12.98;;;;;;;8.39;78.86;99958.63;5096538;28;20032;-66
2022/01/07 00:24:41;;;;;;;23.98;13.88;;;;;;;8.39;79.75;99964.16;5095864;28;20126;-69
2022/01/07 00:27:07;;;;;;;24.83;13.30;;;;;;;8.48;79.02;99971.53;5096506;28;20039;-67
2022/01/07 00:29:33;;;;;;;24.27;12.88;;;;;;;8.48;78.96;99966.00;5097721;28;20343;-68
2022/01/07 00:31:58;;;;;;;24.10;12.90;;;;;;;8.47;79.19;99973.50;5096089;28;20031;-69
2022/01/07 00:34:24;;;;;;;25.50;12.88;;;;;;;8.44;79.31;99970.63;5095694;28;20032;-69
2022/01/07 00:36:49;;;;;;;17.45;10.13;;;;;;;8.46;78.66;99971.06;5096963;28;20020;-69
2022/01/07 00:39:15;;;;;;;16.50;10.13;;;;;;;8.41;79.33;99972.13;5095703;28;20054;-67
2022/01/07 00:41:40;;;;;;;20.70;10.10;;;;;;;8.37;79.44;99983.13;5095593;28;20034;-68
2022/01/07 00:44:06;;;;;;;14.68;9.43;;;;;;;8.33;80.28;99987.72;5095796;28;20043;-67
2022/01/07 00:46:32;;;;;;;18.67;8.75;;;;;;;8.37;79.71;99985.91;5096550;28;20035;-68
2022/01/07 00:48:57;;;;;;;21.27;10.23;;;;;;;8.26;79.77;99982.00;5095467;28;20031;-67
2022/01/07 00:51:24;;;;;;;13.00;8.52;;;;;;;8.26;80.19;99973.69;5095227;28;20053;-66
2022/01/07 00:53:50;;;;;;;17.23;9.13;;;;;;;8.23;79.97;99949.44;5094876;28;20466;-68
2022/01/07 00:56:19;;;;;;;17.73;9.30;;;;;;;8.42;79.09;99981.28;5095329;28;20031;-67
2022/01/07 00:58:44;;;;;;;18.73;8.02;;;;;;;8.36;79.29;99978.75;5095365;28;20083;-67
2022/01/07 01:01:14;;;;;;;14.52;9.00;;;;;;;8.34;79.02;99983.78;5096739;28;20056;-68
2022/01/07 01:03:39;;;;;;;14.32;7.65;;;;;;;8.36;79.28;99989.00;5095227;28;20092;-67
2022/01/07 01:06:05;;;;;;;16.58;7.28;;;;;;;8.31;79.28;99978.97;5095125;28;20067;-69
2022/01/07 01:08:30;;;;;;;13.70;7.65;;;;;;;8.34;79.26;99991.31;5095791;28;20111;-67
2022/01/07 01:10:56;;;;;;;16.35;8.20;;;;;;;8.33;79.28;99981.38;5096204;28;20031;-66
2022/01/07 01:13:31;;;;;;;10.63;6.18;;;;;;;8.32;78.87;99980.59;5094917;28;20057;-67
2022/01/07 01:15:57;;;;;;;12.80;5.75;;;;;;;8.32;78.59;99983.34;5094985;28;20038;-68
2022/01/07 01:18:22;;;;;;;16.13;7.35;;;;;;;8.42;78.46;99975.72;5095161;28;20032;-67
2022/01/07 01:20:48;;;;;;;13.88;7.63;;;;;;;8.43;79.08;99974.56;5094867;28;20024;-66
2022/01/07 01:23:13;;;;;;;12.15;6.70;;;;;;;8.40;78.92;99971.31;5094858;28;20032;-67
2022/01/07 01:25:39;;;;;;;13.40;7.50;;;;;;;8.38;79.45;99967.31;5096617;28;20058;-68
2022/01/07 01:28:04;;;;;;;14.10;6.45;;;;;;;8.37;78.47;99977.59;5094747;28;20455;-69
2022/01/07 01:30:32;;;;;;;13.75;6.47;;;;;;;8.32;78.34;99969.50;5094617;28;20028;-67
2022/01/07 01:32:58;;;;;;;9.25;6.00;;;;;;;8.28;77.98;99976.91;5095527;28;20541;-68
2022/01/07 01:35:24;;;;;;;9.73;4.85;;;;;;;8.19;77.32;99976.22;5094569;28;20119;-68
2022/01/07 01:37:50;;;;;;;7.88;4.05;;;;;;;8.11;77.25;99974.41;5094794;28;20471;-69
2022/01/07 01:40:19;;;;;;;11.52;3.97;;;;;;;8.19;76.89;99979.00;5094778;28;20024;-69
2022/01/07 01:42:46;;;;;;;9.20;3.83;;;;;;;7.96;76.77;99961.31;5094423;28;20063;-69
2022/01/07 01:45:15;;;;;;;5.70;3.45;;;;;;;8.11;76.57;99975.22;5094367;28;20031;-69
2022/01/07 01:47:41;;;;;;;6.70;3.38;;;;;;;8.14;75.77;99957.88;5061797;28;20130;-68
2022/01/07 01:50:08;;;;;;;4.82;3.10;;;;;;;7.97;75.92;99938.78;5077620;28;20126;-66
2022/01/07 01:52:34;;;;;;;7.85;3.47;;;;;;;8.11;75.93;99975.22;5094448;28;20028;-68
2022/01/07 01:55:00;;;;;;;6.43;3.20;;;;;;;8.14;75.65;99968.97;5094033;28;20030;-69
2022/01/07 01:57:26;;;;;;;6.18;2.53;;;;;;;8.12;75.84;99971.28;5094395;28;20040;-67
2022/01/07 01:59:51;;;;;;;2.80;2.10;;;;;;;8.05;75.49;99953.66;5094086;28;20024;-67
2022/01/07 02:02:17;;;;;;;5.13;2.25;;;;;;;8.32;74.88;99977.81;5094308;28;20028;-68
2022/01/07 02:04:42;;;;;;;5.30;1.83;;;;;;;8.26;75.12;99970.09;5094066;28;20467;-68
2022/01/07 02:07:11;;;;;;;6.30;2.30;;;;;;;8.32;74.99;99972.25;5093964;28;20044;-68
2022/01/07 02:09:37;;;;;;;5.35;2.50;;;;;;;8.25;75.16;99963.72;5094026;28;20063;-68
2022/01/07 02:12:08;;;;;;;5.03;2.28;;;;;;;8.22;74.70;99964.44;5093990;28;20040;-69
2022/01/07 02:14:36;;;;;;;3.75;2.00;;;;;;;8.24;74.60;99959.34;5093784;28;20090;-67
2022/01/07 02:17:10;;;;;;;4.15;1.95;;;;;;;8.30;74.52;99955.16;5094317;28;20028;-67
2022/01/07 02:19:36;;;;;;;7.60;2.03;;;;;;;8.28;74.98;99951.16;5094310;28;20366;-67
2022/01/07 02:22:03;;;;;;;5.28;2.03;;;;;;;8.37;74.90;99949.88;5093702;28;20024;-67
2022/01/07 02:24:29;;;;;;;4.93;1.80;;;;;;;8.27;73.72;99947.56;5093611;28;20028;-67
2022/01/07 02:26:55;;;;;;;3.45;1.92;;;;;;;8.03;74.14;99917.16;5093889;28;20035;-69
2022/01/07 02:29:21;;;;;;;4.68;1.85;;;;;;;8.24;73.53;99951.03;5094835;28;20078;-68
2022/01/07 02:31:47;;;;;;;6.07;1.70;;;;;;;8.23;73.72;99952.19;5093763;28;20020;-67
2022/01/07 02:34:13;;;;;;;1.92;1.58;;;;;;;8.30;73.64;99954.34;5093393;28;20360;-68
2022/01/07 02:36:38;;;;;;;3.97;1.83;;;;;;;8.27;74.00;99955.88;5094428;28;20105;-66
2022/01/07 02:39:04;;;;;;;7.85;1.65;;;;;;;8.26;74.40;99953.47;5094371;28;20020;-67
2022/01/07 02:41:31;;;;;;;3.33;1.50;;;;;;;8.24;74.44;99956.56;5093567;28;20462;-68
2022/01/07 02:43:56;;;;;;;3.80;1.98;;;;;;;8.25;74.34;99941.56;5095403;28;20103;-68
2022/01/07 02:46:22;;;;;;;3.63;1.95;;;;;;;8.23;74.77;99938.34;5094274;28;20024;-69
2022/01/07 02:48:48;;;;;;;3.13;1.55;;;;;;;8.17;74.92;99930.63;5093181;28;20024;-68
2022/01/07 02:51:13;;;;;;;2.92;1.77;;;;;;;8.15;74.21;99933.78;5092893;28;20032;-69
2022/01/07 02:53:39;;;;;;;4.95;2.13;;;;;;;8.19;73.25;99939.41;5094332;28;20024;-69
2022/01/07 02:56:04;;;;;;;2.65;1.70;;;;;;;8.22;73.53;99936.72;5092819;28;20031;-69
2022/01/07 02:58:30;;;;;;;4.95;2.03;;;;;;;8.22;73.65;99942.28;5094864;28;20038;-68
2022/01/07 03:00:56;;;;;;;6.90;1.60;;;;;;;8.18;73.58;99941.38;5092988;28;20036;-69
2022/01/07 03:03:21;;;;;;;4.38;1.60;;;;;;;8.21;73.92;99934.31;5094514;28;20028;-69
2022/01/07 03:05:50;;;;;;;7.00;1.92;;;;;;;8.24;72.87;99930.84;5092669;28;20039;-67
2022/01/07 03:08:15;;;;;;;4.93;1.70;;;;;;;8.23;73.50;99935.56;5092858;28;20069;-67
2022/01/07 03:10:41;;;;;;;3.08;1.50;;;;;;;8.22;73.98;99941.47;5092824;28;20032;-69
2022/01/07 03:13:07;;;;;;;3.67;1.73;;;;;;;8.18;74.06;99941.38;5093699;28;20052;-74
2022/01/07 03:15:36;;;;;;;6.72;2.75;;;;;;;8.19;74.29;99947.72;5093929;28;20072;-69
2022/01/07 03:18:08;;;;;;;6.05;2.47;;;;;;;8.09;72.94;99938.72;5092534;28;20059;-67
2022/01/07 03:20:38;;;;;;;5.00;2.47;;;;;;;8.13;73.07;99939.66;5094328;28;20089;-69
2022/01/07 03:23:09;;;;;;;3.85;1.40;;;;;;;8.15;72.24;99939.31;5094234;28;20082;-67
2022/01/07 03:25:35;;;;;;;6.07;2.50;;;;;;;8.14;71.98;99940.44;5092950;28;20421;-69
2022/01/07 03:28:01;;;;;;;8.48;3.25;;;;;;;8.11;72.75;99939.19;5092607;28;20085;-67
2022/01/07 03:30:26;;;;;;;6.20;2.50;;;;;;;8.14;72.71;99946.00;5093145;28;20028;-67
2022/01/07 03:32:52;;;;;;;6.90;2.40;;;;;;;8.09;71.83;99943.47;5092474;28;20466;-69
2022/01/07 03:35:18;;;;;;;6.82;1.90;;;;;;;8.16;72.36;99951.22;5093504;28;20031;-68
2022/01/07 03:37:44;;;;;;;4.50;2.65;;;;;;;8.13;72.07;99945.19;5093362;28;20024;-68
2022/01/07 03:40:12;;;;;;;7.85;2.20;;;;;;;8.16;71.98;99954.78;5092877;28;20415;-68
2022/01/07 03:42:37;;;;;;;29.00;15.18;;;;;;;8.11;71.50;99938.41;5092497;28;20036;-67
2022/01/07 03:45:04;;;;;;;20.25;10.55;;;;;;;8.09;72.00;99933.19;5094864;28;20091;-67
2022/01/07 03:47:30;;;;;;;43.50;24.75;;;;;;;8.23;71.21;99951.41;5093828;28;20024;-67
2022/01/07 03:49:55;;;;;;;202.27;90.72;;;;;;;7.99;71.52;99910.72;5094296;28;20028;-69
2022/01/07 03:52:24;;;;;;;146.73;70.75;;;;;;;8.22;71.21;99961.69;5092856;28;20039;-67
2022/01/07 03:54:50;;;;;;;71.38;38.00;;;;;;;8.28;71.06;99957.50;5092330;28;20032;-67
2022/01/07 03:57:17;;;;;;;48.85;28.33;;;;;;;8.27;70.87;99950.34;5093643;28;20042;-69
2022/01/07 03:59:43;;;;;;;38.35;19.23;;;;;;;8.32;71.26;99954.84;5092589;28;20032;-69
2022/01/07 04:02:08;;;;;;;23.63;13.00;;;;;;;8.31;70.82;99959.56;5092235;28;20024;-68
2022/01/07 04:04:34;;;;;;;15.60;9.98;;;;;;;8.32;70.53;99969.50;5092574;28;20039;-69
2022/01/07 04:06:59;;;;;;;16.40;10.45;;;;;;;8.12;70.52;99926.16;5092271;28;20124;-69
2022/01/07 04:09:25;;;;;;;32.97;16.48;;;;;;;8.44;69.09;99965.09;5093847;28;20028;-69
2022/01/07 04:11:51;;;;;;;38.03;23.52;;;;;;;8.51;69.42;99960.53;5091720;28;20048;-67
2022/01/07 04:14:17;;;;;;;17.08;11.70;;;;;;;8.54;69.62;99964.56;5093126;28;20116;-67
2022/01/07 04:16:45;;;;;;;17.52;10.73;;;;;;;8.36;69.38;99941.88;5092751;28;20055;-67
2022/01/07 04:19:10;;;;;;;11.27;6.88;;;;;;;8.48;68.98;99960.44;5091865;28;20024;-69
2022/01/07 04:21:36;;;;;;;10.02;5.00;;;;;;;8.55;69.12;99953.13;5093459;28;20036;-68
2022/01/07 04:24:01;;;;;;;7.60;3.47;;;;;;;8.61;68.66;99945.34;5092056;28;20436;-67
2022/01/07 04:26:27;;;;;;;7.07;2.95;;;;;;;8.60;68.86;99946.50;5093326;28;20024;-67
2022/01/07 04:28:53;;;;;;;7.43;3.85;;;;;;;8.49;68.57;99942.66;5095856;28;20023;-67
2022/01/07 04:31:18;;;;;;;6.28;3.75;;;;;;;8.54;68.47;99959.84;5097350;28;20080;-67
2022/01/07 04:33:46;;;;;;;8.43;3.38;;;;;;;8.58;68.22;99962.72;5095756;28;20035;-67
2022/01/07 04:36:12;;;;;;;3.28;2.83;;;;;;;8.57;68.19;99961.88;5095760;28;20028;-67
2022/01/07 04:38:37;;;;;;;7.25;2.67;;;;;;;8.56;67.92;99967.78;5095637;28;20035;-68
2022/01/07 04:41:03;;;;;;;6.32;2.45;;;;;;;8.53;68.34;99958.22;5096922;28;20024;-68
2022/01/07 04:43:28;;;;;;;3.25;2.38;;;;;;;8.52;68.17;99962.16;5095583;28;20143;-68
2022/01/07 04:45:54;;;;;;;6.20;2.97;;;;;;;8.57;68.36;99958.31;5095859;28;20040;-67
2022/01/07 04:48:19;;;;;;;6.07;2.55;;;;;;;8.54;68.40;99965.38;5095226;28;20390;-66
2022/01/07 04:50:45;;;;;;;2.50;2.30;;;;;;;8.47;67.85;99959.66;5095476;28;20024;-68
2022/01/07 04:53:11;;;;;;;3.50;2.50;;;;;;;8.54;68.65;99961.81;5095623;28;20055;-68
2022/01/07 04:55:38;;;;;;;5.13;2.22;;;;;;;8.26;68.98;99926.56;5096052;28;20066;-67
2022/01/07 04:58:09;;;;;;;4.32;3.30;;;;;;;8.53;69.13;99962.97;5095325;28;20028;-69
2022/01/07 05:00:36;;;;;;;6.78;2.83;;;;;;;8.58;68.77;99974.59;5096456;28;20028;-67
2022/01/07 05:03:02;;;;;;;8.27;3.55;;;;;;;8.57;69.43;99967.44;5096456;28;20431;-69
2022/01/07 05:05:28;;;;;;;7.72;3.35;;;;;;;8.55;69.60;99975.31;5078575;28;20067;-67
2022/01/07 05:07:54;;;;;;;5.68;3.20;;;;;;;8.50;69.19;99977.53;5095406;28;20035;-67
2022/01/07 05:10:20;;;;;;;6.70;3.40;;;;;;;8.57;69.76;99981.28;5095025;28;20032;-69
2022/01/07 05:12:46;;;;;;;6.40;4.13;;;;;;;8.57;68.43;99991.59;5094542;28;20044;-69
2022/01/07 05:15:13;;;;;;;8.02;4.22;;;;;;;8.63;67.90;99991.00;5094945;28;20122;-69
2022/01/07 05:17:38;;;;;;;9.23;3.50;;;;;;;8.65;67.53;99996.97;5096928;28;20115;-67
2022/01/07 05:20:05;;;;;;;8.65;3.35;;;;;;;8.53;67.76;99974.06;5095463;28;20043;-68
2022/01/07 05:22:31;;;;;;;10.68;3.28;;;;;;;8.58;68.44;99982.13;5078307;28;20043;-67
2022/01/07 05:24:56;;;;;;;2.80;1.85;;;;;;;8.66;68.19;99995.81;5094914;28;20032;-67
2022/01/07 05:27:22;;;;;;;4.25;2.13;;;;;;;8.75;68.42;99987.34;5094759;28;20032;-66
2022/01/07 05:29:47;;;;;;;7.32;2.17;;;;;;;8.66;67.67;99983.91;5095317;28;20055;-68
2022/01/07 05:32:13;;;;;;;4.78;2.17;;;;;;;8.71;67.63;99991.97;5094590;28;20032;-70
2022/01/07 05:34:39;;;;;;;2.45;1.60;;;;;;;8.64;67.49;99987.06;5096510;28;20028;-68
2022/01/07 05:37:04;;;;;;;3.92;2.15;;;;;;;8.64;67.94;99989.03;5094556;28;20032;-67
2022/01/07 05:39:30;;;;;;;5.28;2.65;;;;;;;8.63;68.54;99995.75;5095234;28;20107;-67
2022/01/07 05:41:58;;;;;;;3.30;2.60;;;;;;;8.58;68.67;99984.91;5095018;28;20031;-67
2022/01/07 05:44:23;;;;;;;5.65;2.22;;;;;;;8.55;68.58;99993.91;5095704;28;20026;-67
2022/01/07 05:46:49;;;;;;;9.45;2.08;;;;;;;8.61;67.19;99998.03;5095385;28;20032;-69
2022/01/07 05:49:15;;;;;;;2.90;1.95;;;;;;;8.67;66.27;100002.16;5094306;28;20028;-68
2022/01/07 05:51:41;;;;;;;5.25;1.90;;;;;;;8.64;66.27;99997.34;5077619;28;20036;-67
2022/01/07 05:54:08;;;;;;;2.70;1.45;;;;;;;8.65;65.97;100010.03;5095700;28;20027;-68
2022/01/07 05:56:34;;;;;;;6.35;1.80;;;;;;;8.68;65.27;100009.31;5094098;28;20028;-69
2022/01/07 05:58:59;;;;;;;2.72;1.20;;;;;;;8.81;64.93;100013.66;5095678;28;20024;-69
2022/01/07 06:01:25;;;;;;;1.75;1.25;;;;;;;8.79;64.35;100016.00;5094007;28;20090;-67
2022/01/07 06:03:50;;;;;;;3.80;1.27;;;;;;;8.76;64.96;100025.00;5094544;28;20032;-69
2022/01/07 06:06:16;;;;;;;1.90;1.30;;;;;;;8.74;65.33;100024.56;5094904;28;20474;-66
2022/01/07 06:08:41;;;;;;;6.32;2.42;;;;;;;8.84;64.54;100026.00;5094377;28;20127;-67
2022/01/07 06:11:07;;;;;;;3.55;1.58;;;;;;;8.78;65.30;100025.44;5095111;28;20474;-69
2022/01/07 06:13:34;;;;;;;3.03;1.30;;;;;;;8.84;64.30;100032.38;5094749;28;20081;-69
2022/01/07 06:15:59;;;;;;;6.03;1.30;;;;;;;8.84;64.35;100029.59;5094161;28;20024;-69
2022/01/07 06:18:25;;;;;;;2.92;1.25;;;;;;;8.88;63.50;100027.72;5093821;28;20508;-69
2022/01/07 06:20:50;;;;;;;2.67;1.20;;;;;;;8.87;63.54;100034.44;5094041;28;20028;-68
2022/01/07 06:23:16;;;;;;;3.38;1.48;;;;;;;8.83;63.88;100039.06;5094407;28;20075;-69
2022/01/07 06:25:44;;;;;;;3.00;1.27;;;;;;;8.91;63.30;100038.13;5094426;28;20024;-67
2022/01/07 06:28:10;;;;;;;3.85;1.50;;;;;;;8.92;63.51;100030.59;5093228;28;20036;-67
2022/01/07 06:30:36;;;;;;;7.22;1.70;;;;;;;8.99;65.26;100035.53;5077034;28;20035;-67
2022/01/07 06:33:02;;;;;;;2.17;1.30;;;;;;;9.11;63.41;100035.47;5093399;28;20386;-68
2022/01/07 06:35:27;;;;;;;31.48;16.98;;;;;;;9.05;63.42;100036.88;5095006;28;20035;-70
2022/01/07 06:37:53;;;;;;;48.60;24.40;;;;;;;9.05;62.80;100034.09;5110941;28;20040;-69
2022/01/07 06:40:19;;;;;;;43.60;26.13;;;;;;;9.02;63.08;100032.03;5093334;28;20020;-67
2022/01/07 06:42:44;;;;;;;34.47;21.20;;;;;;;9.11;63.85;100027.94;5094551;28;20062;-67
2022/01/07 06:45:10;;;;;;;13.57;8.35;;;;;;;9.03;63.77;100041.97;5093792;28;20036;-68
2022/01/07 06:47:36;;;;;;;8.93;6.22;;;;;;;9.11;63.81;100039.06;5093800;28;20036;-67
2022/01/07 06:50:02;;;;;;;11.20;5.00;;;;;;;8.86;63.58;100021.72;5092619;28;20433;-68
2022/01/07 06:52:29;;;;;;;9.85;3.95;;;;;;;9.08;64.00;100041.72;5076206;28;20128;-69
2022/01/07 06:54:55;;;;;;;7.25;3.78;;;;;;;9.17;65.41;100051.50;5094963;28;20060;-68
2022/01/07 06:57:21;;;;;;;6.68;4.32;;;;;;;9.13;65.96;100052.56;5094374;28;20070;-67
2022/01/07 06:59:46;;;;;;;10.88;5.18;;;;;;;9.17;63.59;100047.91;5093003;28;20035;-69
2022/01/07 07:02:12;;;;;;;10.05;4.60;;;;;;;9.16;64.87;100049.06;5093408;28;20031;-69
2022/01/07 07:04:37;;;;;;;13.15;5.03;;;;;;;9.17;64.23;100039.59;5092935;28;20470;-67
2022/01/07 07:07:03;;;;;;;5.80;4.03;;;;;;;9.18;64.98;100043.97;5092906;28;20028;-68
2022/01/07 07:09:29;;;;;;;7.22;4.53;;;;;;;9.17;64.22;100039.59;5092793;28;20024;-68
2022/01/07 07:11:54;;;;;;;11.65;5.15;;;;;;;9.22;64.39;100046.84;5092854;28;20044;-69
2022/01/07 07:14:20;;;;;;;8.93;4.50;;;;;;;9.20;64.73;100047.19;5092596;28;20470;-68
2022/01/07 07:16:45;;;;;;;20.20;6.43;;;;;;;9.16;64.84;100051.84;5092790;28;20105;-69
2022/01/07 07:19:11;;;;;;;12.93;6.75;;;;;;;9.29;65.60;100045.06;5092990;28;20115;-69
2022/01/07 07:21:37;;;;;;;9.07;5.18;;;;;;;9.38;64.92;100042.91;5092691;28;20032;-69
2022/01/07 07:24:03;;;;;;;10.57;5.32;;;;;;;9.40;64.22;100050.88;5094294;28;20081;-69
2022/01/07 07:26:29;;;;;;;12.30;4.47;;;;;;;9.51;63.61;100051.94;5093209;28;20024;-69
2022/01/07 07:28:54;;;;;;;11.20;4.63;;;;;;;9.54;63.22;100040.13;5092949;28;20020;-69
2022/01/07 07:31:21;;;;;;;8.98;4.30;;;;;;;9.65;63.16;100057.06;5093875;28;20082;-69
2022/01/07 07:38:51;;;;;;;15.00;6.28;;;;;;;9.87;64.00;100055.59;5092768;28;20032;-69
2022/01/07 07:41:17;;;;;;;22.75;9.35;;;;;;;10.04;63.16;100052.41;5093795;28;20085;-69
2022/01/07 07:43:47;;;;;;;14.75;8.90;;;;;;;10.22;62.47;100056.38;5093038;28;20157;-69
2022/01/07 07:46:13;;;;;;;17.67;9.35;;;;;;;10.38;62.79;100053.59;5093789;28;20053;-69
2022/01/07 07:48:39;;;;;;;13.07;8.68;;;;;;;10.41;61.73;100038.97;5093746;28;20020;-69
2022/01/07 07:51:04;;;;;;;19.20;8.73;;;;;;;10.61;60.91;100050.09;5092643;28;20028;-69
2022/01/07 07:53:30;;;;;;;16.30;6.35;;;;;;;10.72;60.29;100043.59;5093343;28;20103;-69
2022/01/07 07:55:56;;;;;;;11.60;5.53;;;;;;;10.83;61.34;100043.78;5092932;28;20056;-70
2022/01/07 07:58:22;;;;;;;12.30;5.82;;;;;;;10.88;59.73;100049.06;5092375;28;20492;-69
2022/01/07 08:00:48;;;;;;;8.85;4.20;;;;;;;10.94;60.11;100047.59;5092908;28;20370;-69
2022/01/07 08:03:14;;;;;;;11.50;5.80;;;;;;;10.86;58.81;100023.56;5097901;28;20024;-68
2022/01/07 08:05:39;;;;;;;13.57;6.47;;;;;;;11.05;58.80;100049.75;5097522;28;20032;-69
2022/01/07 08:08:06;;;;;;;8.60;4.00;;;;;;;11.12;58.69;100044.31;5096234;28;20024;-69
2022/01/07 08:10:32;;;;;;;10.57;5.50;;;;;;;11.15;59.58;100044.41;5097746;28;20043;-69
2022/01/07 08:16:02;;;;;;;9.98;5.93;;;;;;;11.24;59.73;100044.97;5097478;28;20047;-70
2022/01/07 08:18:29;;;;;;;11.80;6.70;;;;;;;11.38;59.18;100047.19;5097083;28;20024;-69
2022/01/07 08:20:56;;;;;;;16.35;7.13;;;;;;;11.48;58.79;100043.78;5095771;28;20107;-69
2022/01/07 08:23:22;;;;;;;11.32;6.38;;;;;;;11.49;58.79;100037.00;5096523;28;20028;-69
2022/01/07 08:25:48;;;;;;;14.57;6.78;;;;;;;11.51;59.49;100043.03;5079186;28;20470;-69
2022/01/07 08:28:14;;;;;;;15.30;8.20;;;;;;;11.65;59.72;100048.03;5096233;28;20028;-69
2022/01/07 08:31:01;;;;;;;17.90;9.38;;;;;;;11.80;57.87;100054.63;5096124;28;20024;-68
2022/01/07 08:36:13;;;;;;;11.40;6.20;;;;;;;12.74;56.30;100044.41;5097293;28;20489;-70
2022/01/07 08:38:38;;;;;;;21.23;6.18;;;;;;;13.27;53.90;100033.03;5096287;28;20035;-69
2022/01/07 08:41:05;;;;;;;8.13;5.07;;;;;;;13.98;52.54;100044.00;5095645;28;20428;-69
2022/01/07 08:43:31;;;;;;;15.15;8.27;;;;;;;14.51;49.41;100054.72;5096204;28;20032;-70
2022/01/07 08:45:56;;;;;;;10.98;5.93;;;;;;;15.11;48.04;100056.94;5096417;28;20550;-70
2022/01/07 08:48:22;;;;;;;11.88;5.88;;;;;;;15.53;47.01;100066.63;5095250;28;20043;-69
2022/01/07 08:50:47;;;;;;;11.52;5.05;;;;;;;15.85;43.91;100063.84;5096771;28;20024;-70
2022/01/07 08:53:13;;;;;;;8.82;3.97;;;;;;;16.31;43.34;100057.38;5095352;28;20032;-70
2022/01/07 08:55:39;;;;;;;4.82;3.03;;;;;;;16.56;41.86;100060.09;5096002;28;20027;-69
2022/01/07 08:58:05;;;;;;;6.35;3.25;;;;;;;16.62;41.32;100060.47;5095646;28;20455;-68
2022/01/07 09:00:32;;;;;;;7.72;3.97;;;;;;;16.76;40.66;100058.44;5095531;28;20024;-68
2022/01/07 09:03:00;;;;;;;10.05;3.90;;;;;;;16.93;41.97;100053.16;5096050;28;20028;-70
2022/01/07 09:05:26;;;;;;;6.68;5.10;;;;;;;17.09;40.48;100066.72;5097288;28;20099;-70
2022/01/07 09:07:51;;;;;;;6.35;4.22;;;;;;;17.25;40.47;100070.63;5095813;28;20067;-70
2022/01/07 09:10:17;;;;;;;7.97;3.45;;;;;;;17.03;39.15;100063.53;5096587;28;20040;-69
2022/01/07 09:12:42;;;;;;;5.20;2.40;;;;;;;17.13;39.03;100068.31;5093850;28;20065;-72
2022/01/07 09:15:08;;;;;;;6.45;2.50;;;;;;;17.48;38.80;100069.31;5094746;28;20027;-70
2022/01/07 09:17:35;;;;;;;3.05;1.85;;;;;;;17.76;37.35;100066.28;5095900;28;20028;-70
2022/01/07 09:20:01;;;;;;;8.32;2.53;;;;;;;17.84;38.21;100071.84;5095116;28;20025;-68
2022/01/07 09:22:27;;;;;;;4.13;1.77;;;;;;;17.98;36.33;100072.53;5094930;28;20034;-70
2022/01/07 09:24:52;;;;;;;5.20;3.20;;;;;;;17.46;36.64;100066.88;5094843;28;20024;-72
2022/01/07 09:27:18;;;;;;;6.88;2.95;;;;;;;17.74;42.59;100067.94;5095418;28;20119;-69
2022/01/07 09:29:43;;;;;;;4.68;2.10;;;;;;;18.25;39.64;100069.84;5095337;28;20445;-68
2022/01/07 09:32:09;;;;;;;10.25;2.90;;;;;;;18.00;39.63;100070.13;5094803;28;20093;-71
2022/01/07 09:34:36;;;;;;;2.53;2.22;;;;;;;17.61;36.18;100064.78;5094978;28;20020;-71
2022/01/07 09:37:03;;;;;;;6.15;2.10;;;;;;;17.58;36.14;100074.06;5094892;28;20433;-69
2022/01/07 09:39:28;;;;;;;8.90;4.20;;;;;;;16.86;38.43;100061.63;5094556;28;20024;-69
2022/01/07 09:41:54;;;;;;;9.38;5.72;;;;;;;16.04;40.73;100059.03;5094779;28;20032;-67
2022/01/07 09:44:19;;;;;;;9.00;5.80;;;;;;;15.92;41.09;100063.03;5094444;28;20032;-70
2022/01/07 09:46:45;;;;;;;6.85;3.28;;;;;;;15.79;42.26;100053.44;5094467;28;20035;-70
2022/01/07 09:49:11;;;;;;;8.05;3.90;;;;;;;16.07;40.70;100047.78;5095865;28;20043;-70
2022/01/07 09:51:37;;;;;;;11.88;4.20;;;;;;;15.95;40.91;100051.03;5099080;28;20036;-70
2022/01/07 09:54:04;;;;;;;6.38;2.70;;;;;;;16.26;40.35;100042.97;5096942;28;20020;-71
2022/01/07 09:56:30;;;;;;;8.35;3.97;;;;;;;16.12;41.56;100050.19;5094672;28;20419;-70
2022/01/07 09:58:55;;;;;;;5.18;3.40;;;;;;;16.27;40.74;100050.97;5094347;28;20110;-70
2022/01/07 10:01:23;;;;;;;7.93;3.78;;;;;;;16.52;40.45;100047.28;5094661;28;20031;-70
2022/01/07 10:03:48;;;;;;;5.80;3.80;;;;;;;16.89;40.66;100046.78;5094398;28;20020;-70
2022/01/07 10:06:23;;;;;;;12.20;4.35;;;;;;;17.28;39.36;100044.50;5093770;28;20537;-70
2022/01/07 10:09:07;;;;;;;5.00;3.40;;;;;;;17.80;37.97;100038.94;5093991;28;20028;-70
2022/01/07 10:11:33;;;;;;;7.63;3.03;;;;;;;17.74;37.98;100040.59;5093481;28;20048;-71
2022/01/07 10:14:20;;;;;;;8.50;3.00;;;;;;;17.44;37.39;100037.59;5093407;28;20028;-71
2022/01/07 10:16:52;;;;;;;5.93;2.72;;;;;;;17.32;37.58;100024.81;5094989;28;20111;-70
2022/01/07 10:19:38;;;;;;;3.90;2.45;;;;;;;16.95;37.91;100029.06;5093849;28;20486;-69
2022/01/07 10:22:10;;;;;;;6.63;3.17;;;;;;;16.58;39.62;100021.19;5094173;28;20374;-70
2022/01/07 10:25:05;;;;;;;8.05;3.67;;;;;;;16.86;38.81;100013.84;5093457;28;20487;-69
2022/01/07 10:27:37;;;;;;;5.45;2.63;;;;;;;17.18;38.17;100010.84;5076600;28;20040;-69
2022/01/07 10:30:14;;;;;;;7.43;2.45;;;;;;;16.54;39.38;100014.78;5093566;28;20021;-70
2022/01/07 10:32:40;;;;;;;6.60;3.70;;;;;;;17.19;37.81;99987.16;5094438;28;20028;-70
2022/01/07 10:35:19;;;;;;;4.68;3.22;;;;;;;17.24;37.53;100007.19;5093826;28;20080;-70
2022/01/07 10:37:51;;;;;;;4.55;2.15;;;;;;;16.70;38.03;100012.28;5095121;28;20039;-70
2022/01/07 10:40:22;;;;;;;4.07;2.72;;;;;;;16.75;38.45;100011.09;5091034;28;20032;-70
2022/01/07 10:42:48;;;;;;;9.73;3.40;;;;;;;16.65;38.62;100009.09;5093341;28;20089;-70
2022/01/07 10:45:14;;;;;;;2.90;2.38;;;;;;;16.69;38.42;99993.84;5094902;28;20028;-70
2022/01/07 10:47:40;;;;;;;5.18;2.60;;;;;;;17.34;38.65;99982.22;5093268;28;20035;-70
2022/01/07 10:50:32;;;;;;;6.78;2.88;;;;;;;17.09;38.34;99988.81;5093357;28;20111;-71
2022/01/07 10:53:21;;;;;;;8.15;3.20;;;;;;;16.88;38.26;99986.13;5088728;28;20043;-70
2022/01/07 10:56:00;;;;;;;5.13;2.25;;;;;;;17.34;37.98;99982.22;5092959;28;20031;-71
2022/01/07 10:58:27;;;;;;;6.10;2.78;;;;;;;16.73;38.55;99989.03;5092650;28;20055;-71
2022/01/07 11:00:53;;;;;;;5.50;3.00;;;;;;;16.52;39.76;99963.84;5093304;28;20024;-69
2022/01/07 11:03:19;;;;;;;5.00;2.67;;;;;;;16.82;39.88;99973.72;5093531;28;20057;-69
2022/01/07 11:05:45;;;;;;;5.10;3.10;;;;;;;16.63;39.74;99975.81;5093985;28;20073;-67
2022/01/07 11:08:14;;;;;;;6.28;3.35;;;;;;;16.36;40.91;99977.56;5094504;28;20475;-66
2022/01/07 11:10:41;;;;;;;8.05;5.53;;;;;;;16.36;40.04;99969.13;5092888;28;20028;-71
2022/01/07 11:13:07;;;;;;;3.30;2.67;;;;;;;16.44;40.79;99965.06;5092398;28;20079;-71
2022/01/07 11:15:33;;;;;;;7.85;3.33;;;;;;;16.69;39.78;99964.97;5093117;28;20119;-70
2022/01/07 11:17:58;;;;;;;2.85;2.17;;;;;;;16.80;38.89;99964.94;5093327;28;20470;-70
2022/01/07 11:20:24;;;;;;;3.65;2.17;;;;;;;16.79;38.47;99955.69;5092732;28;20024;-70
2022/01/07 11:22:54;;;;;;;4.93;2.47;;;;;;;16.31;40.86;99952.72;5092548;28;20039;-70
2022/01/07 11:25:29;;;;;;;8.07;3.75;;;;;;;16.51;44.21;99953.78;5093323;28;20034;-70
2022/01/07 11:27:57;;;;;;;3.50;2.80;;;;;;;16.03;40.45;99926.31;5093662;28;20103;-69
2022/01/07 11:30:28;;;;;;;5.30;2.92;;;;;;;15.65;40.95;99951.25;5092788;28;20475;-70
2022/01/07 11:32:54;;;;;;;6.28;2.40;;;;;;;15.67;41.75;99940.47;5092768;28;20169;-69
2022/01/07 11:35:19;;;;;;;4.82;3.22;;;;;;;15.28;42.79;99951.66;5092905;28;20541;-69
2022/01/07 11:37:47;;;;;;;5.25;2.08;;;;;;;15.21;43.92;99946.06;5092068;28;20024;-70
2022/01/07 11:40:28;;;;;;;4.65;2.67;;;;;;;14.82;44.68;99946.84;5092517;28;20031;-70